Terminal Aerodrome Forecast
Issued by NWS

Home | Current Version | Previous Version | Text Only | Print | Product List | Glossary On
Versions: 1 2 3 4 5 6 7 8 9 10 11 12 13 14 15 16 17 18 19 20 21 22 23 24 25 26 27
894
FTUS41 KPBZ 130520
TAFDUJ
TAF
KDUJ 130520Z 1306/1406 31011G19KT 6SM -SHSN BKN035 OVC080
      TEMPO 1306/1308 1/2SM SHSN OVC010
     FM130900 32010G20KT 3SM -SHSN OVC015
     FM131300 31010G20KT 5SM -SHSN OVC025=

USA.gov is the U.S. government's official web portal to all federal, state and local government web resources and services.